20:00
Airports
History
Links
Donate
Help keep this website running!
PayPal
Bitcoin
This page is community maintained. The information is intended for PC simulator navigation or reference.
Always use approved charts for navigation.
EDMB
BIBERACH AN DER RISS
BIBERACH AN DER RISS (EDMB)
Biberach, Baden-Wurttemberg, Germany (88400)
(U)
Lat/Lng:48° 6' 37.39" N / 9° 45' 43.35" E
48.110387 / 9.762043
Elevation:1903'ft / 580mMSL
ID / ICAO:EDMB
Runways:1
Longest:04-22
Asphalt 982m / 3,221ft
Nearby Weather19:20 GMT 2017-12-12
Nearby weather at ETHL, LAUPHEIM located 10.3 nautical miles from EDMB
Altimeter: 30.00
Visibility: 6.2 statute miles
Wind: 6 knots (from 220°)
Temp: 0°c / 32°f
Humidity: %

METAR: ETHL 121920Z 22006KT 9999 SCT160 00/M02 Q1016 BLU+

(Powered by phpweather)
Airport Radio Frequencies
Tower: 126.95, 122.75
Nearby VORs <50NM
Nearby NDBs
Runway 04 / 22
Dimensions:981.7 x 22.9m 3221' x 75'ft
Surface:Asphalt
Edge Lights:Medium intensity
Runway 04 [A]Runway 22 [B]
Heading:040°TH 220°TH
Lat:
Lng:
48° 6' 25.39"N
9° 45' 27.87"E
48° 6' 49.4"N
9° 45' 58.83"E
User Notes and Comments
48° 6' 37.39" N / 9° 45' 43.35" E
Distance To
Airport ID:
Nearby Airports
(C) LAUPHEIM 10.3 NM
ETHL ( WX ) NE 41°
(U) Saulgau 13.0 NM
EDTU WSW 244°
(C) Tannheim 17.1 NM
EDMT ESE 113°
4 Erbach 17.4 NM
EDNE NNE 23°
(U) MENGEN HOHENTENGEN 18.4 NM
EDTM WSW 257°
(C) LEUTKIRCH UNTERZEIL 20.9 NM
EDNL SE 146°
(U) MEMMINGEN ALLGAU 23.6 NM
EDJA ESE 110°
VFR Chart
Flight Planning at SkyVector.com